createdAt,value
2018-05-13T00:02:31.256Z,79.27
2018-05-13T00:05:01.536Z,81.17
2018-05-13T00:07:31.052Z,72.50
2018-05-13T00:10:03.789Z,65.57
2018-05-13T00:12:33.510Z,65.50
2018-05-13T00:15:03.171Z,69.10
2018-05-13T00:17:32.636Z,80.83
2018-05-13T00:20:02.167Z,79.00
2018-05-13T00:22:31.597Z,74.53
2018-05-13T00:25:01.089Z,76.80
2018-05-13T00:27:30.848Z,89.67
2018-05-13T00:30:50.397Z,89.77
2018-05-13T00:33:20.003Z,104.70
2018-05-13T00:35:49.567Z,107.07
2018-05-13T00:38:19.816Z,117.37
2018-05-13T00:40:49.426Z,109.53
2018-05-13T00:43:20.115Z,125.77
2018-05-13T00:45:49.806Z,118.00
2018-05-13T00:48:19.773Z,111.63
2018-05-13T00:50:49.281Z,100.63
2018-05-13T00:53:19.117Z,99.80
2018-05-13T00:55:48.730Z,100.63
2018-05-13T00:58:18.321Z,93.20
2018-05-13T01:00:47.792Z,93.17
2018-05-13T01:03:17.283Z,86.10
2018-05-13T01:05:46.667Z,81.53
2018-05-13T01:08:16.182Z,76.20
2018-05-13T01:10:45.654Z,69.43
2018-05-13T01:13:15.512Z,71.53
2018-05-13T01:27:29.638Z,96.83
2018-05-13T01:33:27.667Z,120.30
2018-05-13T01:35:57.468Z,125.10
2018-05-13T01:38:29.470Z,129.10
2018-05-13T01:40:59.315Z,132.23
2018-05-13T01:43:29.067Z,141.90
2018-05-13T01:45:59.242Z,134.17
2018-05-13T01:48:30.651Z,141.47
2018-05-13T01:51:00.228Z,121.50
2018-05-13T01:53:30.778Z,156.07
2018-05-13T01:56:02.384Z,137.90
2018-05-13T01:58:36.504Z,139.13
2018-05-13T02:01:07.577Z,106.10
2018-05-13T02:03:47.304Z,94.37
2018-05-13T02:06:17.791Z,101.67
2018-05-13T02:08:49.686Z,101.83
2018-05-13T02:11:22.124Z,107.90
2018-05-13T02:13:51.830Z,112.70
2018-05-13T02:16:26.259Z,108.00
2018-05-13T02:19:10.300Z,121.40
2018-05-13T02:21:52.596Z,107.67
2018-05-13T02:24:23.063Z,125.67
2018-05-13T02:27:04.330Z,109.20
2018-05-13T02:36:53.429Z,144.77
2018-05-13T02:39:24.097Z,115.93
2018-05-13T02:41:56.657Z,114.57
2018-05-13T02:44:28.177Z,123.53
2018-05-13T02:47:06.243Z,110.10
2018-05-13T02:49:38.060Z,105.40
2018-05-13T02:52:08.670Z,95.23
2018-05-13T02:54:40.142Z,96.90
2018-05-13T02:57:10.485Z,98.37
2018-05-13T02:59:40.551Z,88.87
2018-05-13T03:02:10.931Z,80.10
2018-05-13T03:04:41.079Z,79.73
2018-05-13T03:07:10.773Z,78.60
2018-05-13T03:09:42.501Z,83.00
2018-05-13T03:12:13.141Z,85.10
2018-05-13T03:14:43.771Z,80.67
2018-05-13T03:17:14.291Z,84.70
2018-05-13T03:19:44.959Z,90.50
2018-05-13T03:22:15.079Z,95.70
2018-05-13T03:24:47.103Z,94.67
2018-05-13T03:27:16.922Z,99.17
2018-05-13T03:29:46.700Z,96.87
2018-05-13T03:32:16.338Z,108.17
2018-05-13T03:34:47.207Z,104.03
2018-05-13T03:37:17.894Z,97.90
2018-05-13T03:47:56.922Z,116.90
2018-05-13T03:50:27.675Z,124.87
2018-05-13T03:53:01.079Z,124.93
2018-05-13T03:55:31.561Z,132.20
2018-05-13T03:58:04.724Z,124.93
2018-05-13T04:00:54.359Z,140.20
2018-05-13T04:03:36.194Z,121.57
2018-05-13T04:09:07.407Z,152.30
2018-05-13T04:11:48.082Z,121.70
2018-05-13T04:14:31.061Z,154.57
2018-05-13T04:17:00.733Z,138.40
2018-05-13T04:19:32.192Z,138.30
2018-05-13T04:22:23.633Z,143.60
2018-05-13T04:27:41.680Z,112.67
2018-05-13T04:30:11.220Z,116.63
2018-05-13T04:32:40.737Z,127.57
2018-05-13T04:35:11.182Z,126.57
2018-05-13T04:37:40.697Z,146.17
2018-05-13T04:40:10.366Z,166.67
2018-05-13T04:42:40.003Z,191.33
2018-05-13T04:45:09.655Z,180.20
2018-05-13T04:47:39.080Z,185.40
2018-05-13T04:50:08.790Z,194.93
2018-05-13T04:52:38.251Z,216.33
2018-05-13T04:55:08.001Z,199.10
2018-05-13T04:57:37.472Z,231.90
2018-05-13T05:00:07.083Z,171.03
2018-05-13T05:02:36.594Z,177.67
2018-05-13T05:05:06.191Z,185.23
2018-05-13T05:07:36.909Z,164.43
2018-05-13T05:10:06.647Z,166.43
2018-05-13T05:12:37.580Z,177.33
2018-05-13T05:15:08.155Z,187.00
2018-05-13T05:17:41.038Z,181.07
2018-05-13T05:20:11.606Z,199.33
2018-05-13T05:22:41.979Z,177.07
2018-05-13T05:25:11.565Z,178.37
2018-05-13T05:31:01.562Z,176.23
2018-05-13T05:33:30.844Z,197.67
2018-05-13T05:36:00.185Z,205.10
2018-05-13T05:38:29.569Z,192.23
2018-05-13T05:40:58.879Z,193.77
2018-05-13T05:43:28.155Z,201.07
2018-05-13T05:45:57.496Z,182.43
2018-05-13T05:48:26.913Z,191.20
2018-05-13T05:50:56.256Z,171.27
2018-05-13T05:53:25.622Z,165.50
2018-05-13T05:55:54.914Z,171.07
2018-05-13T05:58:24.200Z,187.70
2018-05-13T06:00:53.577Z,172.60
2018-05-13T06:03:22.867Z,158.20
2018-05-13T06:05:52.168Z,161.63
2018-05-13T06:08:21.729Z,163.00
2018-05-13T06:10:51.287Z,175.50
2018-05-13T06:13:20.759Z,176.37
2018-05-13T06:15:50.144Z,155.70
2018-05-13T06:18:19.560Z,173.33
2018-05-13T06:20:48.932Z,180.07
2018-05-13T06:23:18.299Z,184.63
2018-05-13T06:25:47.597Z,176.37
2018-05-13T06:28:16.900Z,182.47
2018-05-13T06:30:47.174Z,183.90
2018-05-13T06:33:16.503Z,172.17
2018-05-13T06:35:45.880Z,180.30
2018-05-13T06:38:15.169Z,195.87
2018-05-13T06:40:44.470Z,194.40
2018-05-13T06:43:14.944Z,200.73
2018-05-13T06:45:44.262Z,186.67
2018-05-13T06:48:15.675Z,171.00
2018-05-13T06:50:44.971Z,192.23
2018-05-13T06:53:14.264Z,202.47
2018-05-13T06:55:43.665Z,203.40
2018-05-13T06:58:13.064Z,204.27
2018-05-13T07:00:42.978Z,213.60
2018-05-13T07:03:12.383Z,188.60
2018-05-13T07:05:41.713Z,193.73
2018-05-13T07:08:11.017Z,175.20
2018-05-13T07:10:40.547Z,177.80
2018-05-13T07:13:10.627Z,177.13
2018-05-13T07:15:40.016Z,161.20
2018-05-13T07:18:09.371Z,159.90
2018-05-13T07:20:38.712Z,155.23
2018-05-13T07:23:08.101Z,198.27
2018-05-13T07:25:38.169Z,190.20
2018-05-13T07:28:07.518Z,232.10
2018-05-13T07:30:38.992Z,255.17
2018-05-13T07:33:13.007Z,234.17
2018-05-13T07:35:42.382Z,193.93
2018-05-13T07:38:11.719Z,150.40
2018-05-13T07:40:41.024Z,101.47
2018-05-13T07:43:10.514Z,91.10
2018-05-13T07:45:39.817Z,83.93
2018-05-13T07:48:09.138Z,63.90
2018-05-13T07:50:38.514Z,69.57
2018-05-13T07:53:07.818Z,69.00
2018-05-13T07:55:37.120Z,83.80
2018-05-13T07:58:07.203Z,76.60
2018-05-13T08:00:36.497Z,77.27
2018-05-13T08:03:05.790Z,85.07
2018-05-13T08:05:35.738Z,77.77
2018-05-13T08:08:05.178Z,83.63
2018-05-13T08:10:36.108Z,87.97
2018-05-13T08:13:05.608Z,86.30
2018-05-13T08:15:34.912Z,84.33
2018-05-13T08:18:04.333Z,80.10
2018-05-13T08:20:33.664Z,86.60
2018-05-13T08:23:03.086Z,58.43
2018-05-13T08:25:33.780Z,53.83
2018-05-13T08:28:03.627Z,50.93
2018-05-13T08:30:34.516Z,51.93
2018-05-13T08:33:04.131Z,49.13
2018-05-13T08:35:34.435Z,41.03
2018-05-13T08:38:03.776Z,44.37
2018-05-13T08:40:33.341Z,42.63
2018-05-13T08:43:02.849Z,37.50
2018-05-13T08:45:32.393Z,35.10
2018-05-13T08:48:01.823Z,31.83
2018-05-13T08:50:31.141Z,24.97
2018-05-13T08:53:01.352Z,32.43
2018-05-13T08:55:31.452Z,36.83
2018-05-13T08:58:00.869Z,39.97
2018-05-13T09:00:30.231Z,43.17
2018-05-13T09:02:59.521Z,50.23
2018-05-13T09:05:29.719Z,49.30
2018-05-13T09:07:59.095Z,50.13
2018-05-13T09:10:37.118Z,38.00
2018-05-13T09:13:08.235Z,38.10
2018-05-13T09:18:31.529Z,39.80
2018-05-13T09:21:00.963Z,41.37
2018-05-13T09:23:30.278Z,45.47
2018-05-13T09:25:59.653Z,47.27
2018-05-13T09:28:29.055Z,53.63
2018-05-13T09:30:59.122Z,47.07
2018-05-13T09:33:28.444Z,51.73
2018-05-13T09:35:57.801Z,66.63
2018-05-13T09:38:27.124Z,62.30
2018-05-13T09:40:56.428Z,71.30
2018-05-13T09:43:25.826Z,75.23
2018-05-13T09:45:55.218Z,90.40
2018-05-13T09:48:24.558Z,82.10
2018-05-13T09:50:53.923Z,97.13
2018-05-13T09:53:23.274Z,103.50
2018-05-13T09:55:53.373Z,97.73
2018-05-13T09:58:23.212Z,110.13
2018-05-13T10:00:52.545Z,125.43
2018-05-13T10:03:21.895Z,123.67
2018-05-13T10:05:51.246Z,137.03
2018-05-13T10:08:20.643Z,192.50
2018-05-13T10:10:49.984Z,330.20
2018-05-13T10:13:19.374Z,468.90
2018-05-13T10:15:48.693Z,506.00
2018-05-13T10:18:18.011Z,530.27
2018-05-13T10:20:47.410Z,538.80
2018-05-13T10:23:16.778Z,474.80
2018-05-13T10:25:46.093Z,460.50
2018-05-13T10:28:15.508Z,406.03
2018-05-13T10:30:44.846Z,412.00
2018-05-13T10:33:15.050Z,360.07
2018-05-13T10:35:44.416Z,310.57
2018-05-13T10:38:14.192Z,298.93
2018-05-13T10:40:43.627Z,274.50
2018-05-13T10:43:13.026Z,288.67
2018-05-13T10:45:42.401Z,295.10
2018-05-13T10:48:11.862Z,267.33
2018-05-13T10:50:41.379Z,246.80
2018-05-13T10:53:10.739Z,263.97
2018-05-13T10:55:40.102Z,265.40
2018-05-13T10:58:10.144Z,258.27
2018-05-13T11:00:39.482Z,272.63
2018-05-13T11:03:08.897Z,287.63
2018-05-13T11:05:38.206Z,303.60
2018-05-13T11:08:07.555Z,327.43
2018-05-13T11:10:37.021Z,341.90
2018-05-13T11:13:06.371Z,336.60
2018-05-13T11:15:35.714Z,322.73
2018-05-13T11:18:05.178Z,306.40
2018-05-13T11:20:34.901Z,288.30
2018-05-13T11:23:04.315Z,273.10
2018-05-13T11:25:33.705Z,253.37
2018-05-13T11:28:03.035Z,252.73
2018-05-13T11:30:32.894Z,267.30
2018-05-13T11:33:02.366Z,243.27
2018-05-13T11:35:31.787Z,251.53
2018-05-13T11:38:05.321Z,267.77
2018-05-13T11:40:36.020Z,266.43
2018-05-13T11:43:05.407Z,267.77
2018-05-13T11:45:34.746Z,280.43
2018-05-13T11:48:04.096Z,293.80
2018-05-13T11:50:51.284Z,305.03
2018-05-13T11:53:20.848Z,330.43
2018-05-13T12:02:02.302Z,259.73
2018-05-13T12:04:32.986Z,255.90
2018-05-13T12:07:32.471Z,251.33
2018-05-13T12:10:01.847Z,261.57
2018-05-13T12:12:31.753Z,256.27
2018-05-13T12:15:01.735Z,239.07
2018-05-13T12:17:33.827Z,241.47
2018-05-13T12:20:03.291Z,237.67
2018-05-13T12:22:32.793Z,234.27
2018-05-13T12:25:03.044Z,234.80
2018-05-13T12:27:32.603Z,209.23
2018-05-13T12:30:02.038Z,215.23
2018-05-13T12:32:31.476Z,196.70
2018-05-13T12:35:00.934Z,197.60
2018-05-13T12:37:31.485Z,198.30
2018-05-13T12:40:01.225Z,184.07
2018-05-13T12:42:30.707Z,168.00
2018-05-13T12:45:00.110Z,166.30
2018-05-13T12:47:29.519Z,152.47
2018-05-13T12:49:59.881Z,129.67
2018-05-13T12:52:29.298Z,125.33
2018-05-13T12:54:58.702Z,122.77
2018-05-13T12:57:28.114Z,109.67
2018-05-13T12:59:57.569Z,98.03
2018-05-13T13:02:29.649Z,76.87
2018-05-13T13:04:59.591Z,71.30
2018-05-13T13:07:29.655Z,67.63
2018-05-13T13:10:02.530Z,59.40
2018-05-13T13:12:32.320Z,64.73
2018-05-13T13:15:04.114Z,63.57
2018-05-13T13:17:33.618Z,70.60
2018-05-13T13:20:05.194Z,61.87
2018-05-13T13:25:08.897Z,63.20
2018-05-13T13:27:40.600Z,64.60
2018-05-13T13:30:10.067Z,63.63
2018-05-13T13:32:48.187Z,69.20
2018-05-13T13:35:17.806Z,70.37
2018-05-13T13:37:48.263Z,65.23
2018-05-13T13:40:18.482Z,69.83
2018-05-13T13:42:48.130Z,64.50
2018-05-13T13:45:22.565Z,63.93
2018-05-13T13:47:52.121Z,65.17
2018-05-13T13:50:32.677Z,60.07
2018-05-13T13:53:17.666Z,70.57
2018-05-13T13:58:28.070Z,64.30
2018-05-13T14:00:57.577Z,64.07
2018-05-13T14:03:26.939Z,66.17
2018-05-13T14:05:56.710Z,57.87
2018-05-13T14:08:26.769Z,47.33
2018-05-13T14:10:56.894Z,48.80
2018-05-13T14:13:27.416Z,58.03
2018-05-13T14:15:56.826Z,53.80
2018-05-13T14:18:27.011Z,52.77
2018-05-13T14:20:56.346Z,51.73
2018-05-13T14:23:30.285Z,51.00
2018-05-13T14:26:13.002Z,49.60
2018-05-13T14:28:43.399Z,51.53
2018-05-13T14:31:12.830Z,50.10
2018-05-13T14:33:42.606Z,48.13
2018-05-13T14:36:17.550Z,50.93
2018-05-13T14:38:49.811Z,47.57
2018-05-13T14:41:22.960Z,50.63
2018-05-13T14:43:52.609Z,48.67
2018-05-13T14:46:22.942Z,49.58
2018-05-13T14:49:35.543Z,45.97
2018-05-13T14:52:15.117Z,48.22
2018-05-13T14:57:34.118Z,44.57
2018-05-13T15:00:24.806Z,45.63
2018-05-13T15:05:30.245Z,51.40
2018-05-13T15:08:01.340Z,46.97
2018-05-13T15:10:30.880Z,49.97
2018-05-13T15:13:02.151Z,45.28
2018-05-13T15:18:53.746Z,43.40
2018-05-13T15:21:23.225Z,44.47
2018-05-13T15:23:54.169Z,45.85
2018-05-13T15:26:26.243Z,43.47
2018-05-13T15:28:57.335Z,42.17
2018-05-13T15:31:27.129Z,45.75
2018-05-13T15:33:56.680Z,42.47
2018-05-13T15:36:26.351Z,41.78
2018-05-13T15:38:56.053Z,39.30
2018-05-13T15:41:25.551Z,43.05
2018-05-13T15:43:55.516Z,42.85
2018-05-13T15:49:19.180Z,38.15
2018-05-13T15:54:42.842Z,39.67
2018-05-13T15:57:13.008Z,33.78
2018-05-13T15:59:43.694Z,34.53
2018-05-13T16:02:16.280Z,32.17
2018-05-13T16:04:46.294Z,30.58
2018-05-13T16:10:52.107Z,25.35
2018-05-13T16:13:21.501Z,24.87
2018-05-13T16:21:51.422Z,29.10
2018-05-13T16:27:08.746Z,28.38
2018-05-13T16:29:41.728Z,28.95
2018-05-13T16:37:35.261Z,27.17
2018-05-13T16:40:11.054Z,26.95
2018-05-13T16:42:44.445Z,25.80
2018-05-13T16:48:04.946Z,24.70
2018-05-13T16:51:01.620Z,23.48
2018-05-13T16:53:43.915Z,24.42
2018-05-13T16:56:25.951Z,26.12
2018-05-13T16:58:57.149Z,25.08
2018-05-13T17:01:27.605Z,22.33
2018-05-13T17:04:00.787Z,24.30
2018-05-13T17:06:34.876Z,22.85
2018-05-13T17:09:06.377Z,26.48
2018-05-13T17:11:35.918Z,25.08
2018-05-13T17:14:17.590Z,25.12
2018-05-13T17:16:48.780Z,27.60
2018-05-13T17:19:28.883Z,26.62
2018-05-13T17:22:03.178Z,27.48
2018-05-13T17:24:40.516Z,27.70
2018-05-13T17:27:10.630Z,30.25
2018-05-13T17:29:41.626Z,24.77
2018-05-13T17:32:13.265Z,26.90
2018-05-13T17:34:44.203Z,27.23
2018-05-13T17:37:14.788Z,24.90
2018-05-13T17:42:21.152Z,27.65
2018-05-13T17:44:54.050Z,26.20
2018-05-13T17:47:27.134Z,25.90
2018-05-13T17:49:57.817Z,27.08
2018-05-13T17:52:28.427Z,26.83
2018-05-13T17:54:58.448Z,29.40
2018-05-13T17:57:29.703Z,29.95
2018-05-13T17:59:59.655Z,27.67
2018-05-13T18:02:30.168Z,27.92
2018-05-13T18:05:11.246Z,27.90
2018-05-13T18:13:28.968Z,24.80
2018-05-13T18:16:07.236Z,24.80
2018-05-13T18:18:43.969Z,26.95
2018-05-13T18:21:15.352Z,23.73
2018-05-13T18:23:45.530Z,24.23
2018-05-13T18:26:16.525Z,24.30
2018-05-13T18:28:48.605Z,25.65
2018-05-13T18:31:21.463Z,23.38
2018-05-13T18:33:52.052Z,25.10
2018-05-13T18:36:21.475Z,26.58
2018-05-13T18:38:50.995Z,23.80
2018-05-13T18:41:20.374Z,24.52
2018-05-13T18:43:49.768Z,21.85
2018-05-13T18:46:20.104Z,24.40
2018-05-13T18:49:20.016Z,28.62
2018-05-13T18:51:55.772Z,28.45
2018-05-13T18:54:26.506Z,22.90
2018-05-13T18:56:56.879Z,24.73
2018-05-13T18:59:34.449Z,21.35
2018-05-13T19:07:23.941Z,31.65
2018-05-13T19:09:57.417Z,34.80
2018-05-13T19:12:28.011Z,34.42
2018-05-13T19:14:58.188Z,47.22
2018-05-13T19:17:27.616Z,42.40
2018-05-13T19:19:57.182Z,43.47
2018-05-13T19:22:27.669Z,47.58
2018-05-13T19:34:49.797Z,41.13
2018-05-13T19:37:24.406Z,41.92
2018-05-13T19:39:56.313Z,48.38
2018-05-13T19:42:27.419Z,40.83
2018-05-13T19:44:57.474Z,41.00
2018-05-13T19:47:26.940Z,36.42
2018-05-13T19:49:56.438Z,44.03
2018-05-13T19:52:31.421Z,44.00
2018-05-13T19:55:01.231Z,52.30
2018-05-13T19:57:35.043Z,46.28
2018-05-13T20:00:05.202Z,48.05
2018-05-13T20:05:18.875Z,47.55
2018-05-13T20:07:53.029Z,48.55
2018-05-13T20:10:23.418Z,46.22
2018-05-13T20:12:52.814Z,46.72
2018-05-13T20:15:22.607Z,53.38
2018-05-13T20:18:05.277Z,49.25
2018-05-13T20:20:40.219Z,44.90
2018-05-13T20:23:29.046Z,44.05
2018-05-13T20:25:59.607Z,43.78
2018-05-13T20:28:29.649Z,50.80
2018-05-13T20:31:08.296Z,48.27
2018-05-13T20:33:38.998Z,47.60
2018-05-13T20:36:08.468Z,57.47
2018-05-13T20:38:39.580Z,50.10
2018-05-13T20:41:09.098Z,58.17
2018-05-13T20:43:39.110Z,51.57
2018-05-13T20:46:16.874Z,60.73
2018-05-13T20:48:46.961Z,63.47
2018-05-13T20:51:16.969Z,59.60
2018-05-13T20:53:47.058Z,55.83
2018-05-13T20:56:17.375Z,62.17
2018-05-13T21:01:24.469Z,69.00
2018-05-13T21:07:26.933Z,75.73
2018-05-13T21:09:58.837Z,81.33
2018-05-13T21:12:30.293Z,102.50
2018-05-13T21:15:00.256Z,111.23
2018-05-13T21:17:29.699Z,108.50
2018-05-13T21:20:00.122Z,25.80
2018-05-13T21:22:30.522Z,152.77
2018-05-13T21:25:00.798Z,160.30
2018-05-13T21:27:30.157Z,151.10
2018-05-13T21:30:00.262Z,145.70
2018-05-13T21:32:29.697Z,169.00
2018-05-13T21:34:59.777Z,162.33
2018-05-13T21:37:32.017Z,168.80
2018-05-13T21:40:01.523Z,173.10
2018-05-13T21:42:31.853Z,184.77
2018-05-13T21:45:05.056Z,130.57
2018-05-13T21:47:37.170Z,103.10
2018-05-13T21:50:10.409Z,105.50
2018-05-13T21:52:50.138Z,102.87
2018-05-13T21:55:20.850Z,124.50
2018-05-13T21:57:50.828Z,119.03
2018-05-13T22:00:24.210Z,116.93
2018-05-13T22:02:55.750Z,106.97
2018-05-13T22:05:27.428Z,96.77
2018-05-13T22:07:56.950Z,76.83
2018-05-13T22:10:29.855Z,78.90
2018-05-13T22:13:00.582Z,77.40
2018-05-13T22:15:32.533Z,86.63
2018-05-13T22:18:04.310Z,73.87
2018-05-13T22:20:33.747Z,74.03
2018-05-13T22:23:03.719Z,63.33
2018-05-13T22:25:34.039Z,69.90
2018-05-13T22:28:03.445Z,69.50
2018-05-13T22:30:33.924Z,70.37
2018-05-13T22:33:03.430Z,70.47
2018-05-13T22:35:34.525Z,76.40
2018-05-13T22:38:05.102Z,80.77
2018-05-13T22:40:34.838Z,83.10
2018-05-13T22:43:05.086Z,88.73
2018-05-13T22:45:34.767Z,93.83
2018-05-13T22:48:04.621Z,104.20
2018-05-13T22:50:36.844Z,134.60
2018-05-13T22:53:07.576Z,137.83
2018-05-13T22:55:51.439Z,149.53
2018-05-13T23:00:57.475Z,128.37
2018-05-13T23:03:26.843Z,139.67
2018-05-13T23:05:56.711Z,128.93
2018-05-13T23:08:31.655Z,117.07
2018-05-13T23:11:01.398Z,114.37
2018-05-13T23:13:30.850Z,107.03
2018-05-13T23:16:02.453Z,107.50
2018-05-13T23:21:15.566Z,108.33
2018-05-13T23:23:50.671Z,126.53
2018-05-13T23:29:23.860Z,104.97
2018-05-13T23:37:31.272Z,132.47
2018-05-13T23:40:03.574Z,123.07
2018-05-13T23:45:31.773Z,111.67
2018-05-13T23:48:01.186Z,112.97
2018-05-13T23:50:55.531Z,109.80
2018-05-13T23:53:25.063Z,111.20
2018-05-13T23:55:55.593Z,114.73
2018-05-13T23:58:25.307Z,116.93
